• Join FlightAware (Why Join?)
  • Login
  • US Flag 
Gobble Gobble! 
03:24AM EST


 

Airport Tracker/Info


-or-


 

Live Flight TrackerFlight Track Log ✈ N778AN ✈ 30-Apr-2013 ✈ EGLL / LHR - KJFK

Flight Track Log - Related Links

Times and Time Zones

All times are in EDT time to prevent confusion due to time zone crossing. See the N778AN flight status page for this flight to view local times or setup timezone preferences in your user account.

Time Position Orientation Groundspeed Altitude Reporting Facility
EDT Latitude Longitude Course Direction KTS MPH feet Rate Location/Type
12:32PM 51.4614 -0.4061 147° Southeast 172 198 100  Level FlightAware UK
12:33PM 51.4547 -0.3990 144° Southeast 166 191 1,900 6,660 Climbing FlightAware ADS-B
12:33PM 51.4486 -0.3978 173° South 176 203 2,100 1,500 Climbing FlightAware ADS-B
12:33PM 51.4421 -0.4001 193° South 186 214 2,300 1,380 Climbing FlightAware ADS-B
12:33PM 51.4385 -0.4031 207° Southwest 189 217 2,400 1,980 Climbing FlightAware ADS-B
12:33PM 51.4352 -0.4068 215° Southwest 193 222 2,600 1,620 Climbing FlightAware ADS-B
12:33PM 51.4252 -0.4199 219° Southwest 202 232 2,900 960 Climbing FlightAware ADS-B
12:33PM 51.4132 -0.4360 220° Southwest 229 264 3,100 840 Climbing FlightAware ADS-B
12:34PM 51.4030 -0.4498 220° Southwest 245 282 3,300 1,260 Climbing FlightAware ADS-B
12:34PM 51.3969 -0.4578 220° Southwest 251 289 3,500 1,860 Climbing FlightAware ADS-B
12:34PM 51.3858 -0.4716 218° Southwest 256 295 3,900 2,220 Climbing FlightAware ADS-B
12:34PM 51.3822 -0.4766 221° Southwest 258 297 4,100 2,520 Climbing FlightAware ADS-B
12:34PM 51.3796 -0.4806 224° Southwest 259 298 4,200 1,680 Climbing FlightAware ADS-B
12:34PM 51.3764 -0.4864 228° Southwest 261 300 4,300 1,320 Climbing FlightAware ADS-B
12:34PM 51.3731 -0.4938 235° Southwest 264 304 4,400 2,220 Climbing FlightAware ADS-B
12:34PM 51.3709 -0.4997 239° Southwest 265 305 4,600 3,000 Climbing FlightAware ADS-B
12:35PM 51.3621 -0.5264 242° Southwest 271 312 5,300 2,700 Climbing FlightAware ADS-B
12:35PM 51.3579 -0.5421 247° West 270 311 5,700 2,520 Climbing FlightAware ADS-B
12:35PM 51.3564 -0.5518 256° West 270 311 5,900 2,160 Climbing FlightAware ADS-B
12:35PM 51.3555 -0.5630 263° West 272 313 6,100 1,980 Climbing FlightAware ADS-B
12:35PM 51.3555 -0.5695 270° West 272 313 6,200 1,620 Climbing FlightAware ADS-B
12:35PM 51.3560 -0.5849 273° West 276 318 6,400 1,980 Climbing FlightAware ADS-B
12:35PM 51.3572 -0.5993 278° West 278 320 6,700 2,400 Climbing FlightAware ADS-B
12:35PM 51.3605 -0.6304 280° West 281 323 7,300 2,280 Climbing FlightAware ADS-B
12:36PM 51.3641 -0.6623 280° West 280 322 7,900 2,100 Climbing FlightAware ADS-B
12:36PM 51.3678 -0.6939 281° West 280 322 8,400 1,980 Climbing FlightAware ADS-B
12:36PM 51.3714 -0.7244 281° West 284 327 8,900 2,280 Climbing FlightAware ADS-B
12:36PM 51.3756 -0.7574 282° West 285 328 9,600 2,160 Climbing FlightAware ADS-B
12:37PM 51.3837 -0.8211 282° West 296 341 10,600 1,560 Climbing FlightAware ADS-B
12:37PM 51.3918 -0.8900 281° West 326 375 11,200 -780 Climbing FlightAware ADS-B
12:38PM 51.3970 -0.9329 281° West 346 398 10,000 1,140 Descending FlightAware UK
12:38PM 51.4011 -0.9660 281° West 354 407 11,800 3,480 Climbing FlightAware ADS-B
12:38PM 51.4108 -1.0447 281° West 362 417 12,500 1,200 Climbing FlightAware ADS-B
12:39PM 51.4142 -1.0719 281° West 365 420 12,600 660 Climbing FlightAware ADS-B
12:39PM 51.4170 -1.0894 284° West 365 420 12,700 600 Climbing FlightAware ADS-B
12:39PM 51.4370 -1.1719 291° West 367 422 13,000 660 Climbing FlightAware ADS-B
12:40PM 51.4554 -1.2473 291° West 366 421 13,400 -1,080 Climbing FlightAware ADS-B
12:40PM 51.4679 -1.3000 291° West 376 433 12,100 780 Descending FlightAware UK
12:40PM 51.4731 -1.3236 291° West 366 421 13,800 4,200 Climbing FlightAware ADS-B
12:41PM 51.4910 -1.3997 291° West 366 421 14,900 2,700 Climbing FlightAware ADS-B
12:41PM 51.5095 -1.4768 291° West 364 419 16,500 2,880 Climbing FlightAware ADS-B
12:42PM 51.5265 -1.5514 290° West 370 426 17,800 2,520 Climbing FlightAware ADS-B
12:42PM 51.5413 -1.6333 286° West 375 432 19,100 600 Climbing FlightAware ADS-B
12:43PM 51.5507 -1.6858 286° West 396 456 18,300 2,460 Descending FlightAware UK
12:43PM 51.5581 -1.7261 286° West 380 437 20,500 4,380 Climbing FlightAware ADS-B
12:43PM 51.5736 -1.8090 287° West 384 442 21,700 720 Climbing FlightAware ADS-B
12:44PM 51.5873 -1.8810 287° West 412 474 21,200 2,160 Descending FlightAware UK
12:44PM 51.5913 -1.9011 287° West 391 450 22,900 1,980 Climbing FlightAware ADS-B
12:44PM 51.6037 -1.9643 287° West 418 481 22,200 2,100 Descending FlightAware UK
12:44PM 51.6084 -1.9874 287° West 396 456 24,000 1,740 Climbing FlightAware ADS-B
12:45PM 51.6173 -2.0318 287° West 424 488 22,900 1,920 Descending FlightAware UK
12:45PM 51.6259 -2.0733 287° West 402 463 25,000 1,980 Climbing FlightAware ADS-B
12:45PM 51.6344 -2.1160 287° West 428 493 23,900 1,800 Descending FlightAware UK
12:45PM 51.6435 -2.1611 287° West 407 468 25,900 1,800 Climbing FlightAware ADS-B
12:46PM 51.6520 -2.2025 287° West 438 504 24,800 1,620 Descending FlightAware UK
12:46PM 51.6602 -2.2437 287° West 411 473 26,700 1,620 Climbing FlightAware ADS-B
12:46PM 51.6675 -2.2900 287° West 440 506 25,600 1,680 Descending FlightAware UK
12:47PM 51.6746 -2.3387 287° West 414 476 27,600 1,560 Climbing FlightAware ADS-B
12:47PM 51.6855 -2.4163 287° West 448 516 26,700 1,440 Descending FlightAware UK
12:47PM 51.6890 -2.4395 287° West 420 483 28,400 1,380 Climbing FlightAware ADS-B
12:48PM 51.7045 -2.5436 287° West 456 525 27,700 -360 Descending FlightAware UK
12:48PM 51.7132 -2.5997 284° West 462 532 28,100 1,500 Climbing FlightAware UK
12:48PM 51.7217 -2.6560 284° West 468 539 28,600 1,620 Climbing FlightAware UK
12:49PM 51.7298 -2.7109 283° West 468 539 29,100 1,320 Climbing FlightAware UK
12:49PM 51.7385 -2.7660 284° West 472 543 29,400 1,260 Climbing FlightAware UK
12:49PM 51.7505 -2.8407 285° West 476 548 30,000 1,260 Climbing FlightAware UK
12:50PM 51.7592 -2.8970 284° West 478 550 30,300 1,200 Climbing FlightAware UK
12:51PM 51.7888 -3.0862 284° West 482 555 31,600 1,320 Climbing FlightAware UK
12:51PM 51.8133 -3.2558 283° West 476 548 32,900 1,380 Climbing FlightAware UK
12:52PM 51.8244 -3.3310 283° West 476 548 33,400 960 Climbing FlightAware UK
12:52PM 51.8351 -3.4058 283° West 474 545 33,700 840 Climbing FlightAware UK
12:53PM 51.8458 -3.4813 283° West 474 545 34,100 960 Climbing FlightAware UK
12:53PM 51.8539 -3.5382 283° West 478 550 34,400 540 Climbing FlightAware UK
12:53PM 51.8648 -3.6142 283° West 476 548 34,500  Climbing FlightAware UK
12:54PM 51.8730 -3.6713 283° West 476 548 34,400  Descending FlightAware UK
12:54PM 51.8864 -3.7663 283° West 476 548 34,500 120 Climbing FlightAware UK
12:54PM 51.8944 -3.8232 283° West 478 550 34,500  Level FlightAware UK
12:55PM 51.9023 -3.8801 283° West 474 545 34,500  Level FlightAware UK
12:55PM 51.9103 -3.9370 283° West 474 545 34,500  Level FlightAware UK
12:55PM 51.9183 -3.9940 283° West 476 548 34,500  Level FlightAware UK
12:56PM 51.9262 -4.0512 283° West 478 550 34,500  Level FlightAware UK
12:56PM 51.9341 -4.1082 283° West 480 552 34,500  Level FlightAware UK
12:56PM 51.9420 -4.1652 283° West 480 552 34,500  Level FlightAware UK
12:57PM 51.9498 -4.2222 283° West 478 550 34,500  Level FlightAware UK
12:57PM 51.9574 -4.2785 282° West 478 550 34,500  Level FlightAware UK
12:57PM 51.9650 -4.3354 282° West 478 550 34,500  Level FlightAware UK
12:58PM 51.9753 -4.4111 282° West 480 552 34,500  Level FlightAware UK
12:58PM 51.9830 -4.4680 282° West 478 550 34,500  Level FlightAware UK
12:58PM 51.9932 -4.5436 282° West 478 550 34,500  Level FlightAware UK
12:59PM 52.0007 -4.6003 282° West 478 550 34,500  Level FlightAware UK
12:59PM 52.0083 -4.6570 282° West 476 548 34,500  Level FlightAware UK
12:59PM 52.0158 -4.7137 282° West 478 550 34,500  Level FlightAware UK
12:59PM 52.0232 -4.7705 282° West 480 552 34,500  Level FlightAware UK
01:00PM 52.0306 -4.8272 282° West 478 550 34,500  Level FlightAware UK
01:00PM 52.0380 -4.8832 282° West 478 550 34,500  Level FlightAware UK
01:00PM 52.0478 -4.9588 282° West 478 550 34,500  Level FlightAware UK
01:01PM 52.0576 -5.0342 282° West 478 550 34,500  Level FlightAware UK
01:01PM 52.0649 -5.0907 282° West 478 550 34,500  Level FlightAware UK
01:01PM 52.0721 -5.1472 282° West 478 550 34,500  Level FlightAware UK
01:02PM 52.0763 -5.2039 277° West 480 552 34,500  Level FlightAware UK
01:02PM 52.0787 -5.2613 274° West 480 552 34,500  Level FlightAware UK
01:02PM 52.0777 -5.3189 268° West 478 550 34,500  Level FlightAware UK
01:03PM 52.0732 -5.3759 263° West 476 548 34,500 3,720 Level FlightAware UK
01:03PM 52.0730 -5.3790 263° West 426 490 36,000  Climbing FlightAware
01:03PM 52.0674 -5.4519 263° West 476 548 34,500 -2,520 Descending FlightAware UK
01:03PM 52.0629 -5.5088 263° West 476 548 34,500 3,300 Level FlightAware UK
01:03PM 52.0620 -5.5230 263° West 424 488 36,000 240 Climbing FlightAware
01:04PM 52.0568 -5.5844 263° West 472 543 34,600 -2,400 Descending FlightAware UK
01:04PM 52.0523 -5.6408 263° West 468 539 34,700 4,080 Climbing FlightAware UK
01:04PM 52.0510 -5.6490 263° West 420 483 36,300 480 Climbing FlightAware
01:04PM 52.0459 -5.7157 263° West 468 539 34,900 -2,100 Descending FlightAware UK
01:05PM 52.0410 -5.7720 262° West 472 543 35,100 3,840 Climbing FlightAware UK
01:05PM 52.0390 -5.7940 262° West 427 491 36,700 360 Climbing FlightAware
01:05PM 52.0328 -5.8667 262° West 474 545 35,300 420 Descending FlightAware UK
01:06PM 52.0290 -5.9230 262° West 431 496 37,000 660 Climbing FlightAware
01:06PM 52.0247 -5.9831 262° West 472 543 35,700 -2,160 Descending FlightAware UK
01:06PM 52.0207 -6.0408 264° West 474 545 35,800 480 Climbing FlightAware UK
01:06PM 52.0166 -6.0993 264° West 476 548 36,000 4,800 Climbing FlightAware UK
01:06PM 52.0160 -6.1010 264° West 438 504 37,500 300 Climbing FlightAware
01:07PM 52.0122 -6.1579 264° West 476 548 36,100 -2,220 Descending FlightAware UK
01:07PM 52.0079 -6.2165 263° West 476 548 36,300 3,600 Climbing FlightAware UK
01:07PM 52.0050 -6.2520 263° West 439 505 37,900 360 Climbing FlightAware
01:08PM 52.0003 -6.3141 263° West 474 545 36,500 -2,520 Descending FlightAware UK
01:08PM 51.9958 -6.3730 263° West 474 545 36,400 4,080 Descending FlightAware UK
01:08PM 51.9950 -6.3830 263° West 444 511 38,000 240 Climbing FlightAware
01:08PM 51.9896 -6.4522 263° West 476 548 36,500 -2,580 Descending FlightAware UK
01:09PM 51.9848 -6.5119 262° West 476 548 36,400 4,500 Descending FlightAware UK
01:09PM 51.9850 -6.5130 262° West 444 511 38,000  Climbing FlightAware
01:09PM 51.9802 -6.5714 262° West 474 545 36,400 -2,700 Descending FlightAware UK
01:09PM 51.9756 -6.6308 263° West 476 548 36,500 3,300 Climbing FlightAware UK
01:09PM 51.9730 -6.6600 263° West 444 511 38,000 -240 Climbing FlightAware
01:10PM 51.9677 -6.7297 263° West 476 548 36,400 -2,640 Descending FlightAware UK
01:10PM 51.9630 -6.7889 263° West 478 550 36,400 4,560 Level FlightAware UK
01:10PM 51.9630 -6.7900 263° West 443 510 38,000  Climbing FlightAware
01:10PM 51.9583 -6.8480 263° West 478 550 36,400 -2,940 Descending FlightAware UK
01:11PM 51.9536 -6.9070 263° West 478 550 36,400 3,840 Level FlightAware UK
01:11PM 51.9520 -6.9220 263° West 441 507 38,000  Climbing FlightAware
01:11PM 51.9474 -6.9856 263° West 474 545 36,400 -2,580 Descending FlightAware UK
01:11PM 51.9424 -7.0445 262° West 476 548 36,500 3,420 Climbing FlightAware UK
01:11PM 51.9400 -7.0660 262° West 441 507 38,000  Climbing FlightAware
01:12PM 51.9341 -7.1425 262° West 476 548 36,500 -2,580 Descending FlightAware UK
01:12PM 51.9292 -7.2006 262° West 476 548 36,400 4,500 Descending FlightAware UK
01:12PM 51.9290 -7.2030 262° West 440 506 38,000  Climbing FlightAware
01:12PM 51.9243 -7.2594 262° West 474 545 36,400 -2,700 Descending FlightAware UK
01:13PM 51.9193 -7.3180 262° West 474 545 36,500 3,300 Climbing FlightAware UK
01:13PM 51.9170 -7.3480 262° West 441 507 38,000  Climbing FlightAware
01:13PM 51.9109 -7.4158 262° West 474 545 36,500  Descending FlightAware UK
01:13PM 51.9070 -7.4630 262° West 441 507 38,000  Climbing FlightAware
01:13PM 51.9059 -7.4744 262° West 474 545 36,500 -4,500 Descending FlightAware UK
01:14PM 51.9010 -7.5331 262° West 474 545 36,500  Level FlightAware UK
01:14PM 51.8961 -7.5917 262° West 474 545 36,500  Level FlightAware UK
01:14PM 51.8909 -7.6502 262° West 474 545 36,500  Level FlightAware UK
01:15PM 51.8857 -7.7087 262° West 474 545 36,500  Level FlightAware UK
01:15PM 51.8804 -7.7672 262° West 474 545 36,500  Level FlightAware UK
01:15PM 51.8750 -7.8257 262° West 474 545 36,500  Level FlightAware UK
01:15PM 51.8750 -7.8220 262° West 38,000  Climbing FlightAware
01:16PM 51.8680 -7.9036 262° West 474 545 36,500 -2,460 Descending FlightAware UK
01:16PM 51.8628 -7.9621 262° West 472 543 36,500  Level FlightAware UK
01:16PM 51.8576 -8.0206 262° West 474 545 36,500  Level FlightAware UK
01:17PM 51.8524 -8.0791 262° West 474 545 36,500  Level FlightAware UK
01:17PM 51.8467 -8.1375 261° West 472 543 36,500  Level FlightAware UK
01:17PM 51.8412 -8.1959 261° West 472 543 36,500 2,040 Level FlightAware UK
01:18PM 51.8350 -8.2680 261° West 441 507 38,000  Climbing FlightAware
01:18PM 51.8285 -8.3319 261° West 476 548 36,500 -2,700 Descending FlightAware UK
01:18PM 51.8229 -8.3905 261° West 474 545 36,500  Level FlightAware UK
01:18PM 51.8173 -8.4490 261° West 476 548 36,500  Level FlightAware UK
01:19PM 51.8118 -8.5076 261° West 474 545 36,500  Level FlightAware UK
01:19PM 51.8063 -8.5660 261° West 474 545 36,500  Level FlightAware UK
01:19PM 51.8008 -8.6244 261° West 474 545 36,500 1,200 Level FlightAware UK
01:20PM 51.7840 -8.7970 261° West 441 507 38,000  Climbing FlightAware
01:21PM 51.7779 -8.8575 261° West 472 543 36,500  Descending FlightAware UK
01:21PM 51.7710 -8.9280 261° West 441 507 38,000  Climbing FlightAware
01:21PM 51.7643 -8.9937 261° West 474 545 36,500  Descending FlightAware UK
01:22PM 51.7590 -9.0530 261° West 441 507 38,000 1,260 Climbing FlightAware
01:22PM 51.7420 -9.2130 260° West 441 507 38,000  Level FlightAware
01:23PM 51.7290 -9.3460 261° West 441 507 38,000  Level FlightAware
01:24PM 51.7160 -9.4730 261° West 442 509 38,000  Level FlightAware
01:24PM 51.7000 -9.6190 260° West 441 507 38,000  Level FlightAware
01:25PM 51.6880 -9.7360 261° West 441 507 38,000  Level FlightAware
01:26PM 51.6710 -9.8930 260° West 441 507 38,000  Level FlightAware
01:27PM 51.6570 -10.0230 260° West 440 506 38,000  Level FlightAware
01:27PM 51.6430 -10.1530 260° West 440 506 38,000  Level FlightAware
01:28PM 51.6280 -10.2810 259° West 439 505 38,000  Level FlightAware
01:29PM 51.6120 -10.4250 260° West 437 503 38,000  Level FlightAware
01:29PM 51.5950 -10.5770 260° West 436 502 38,000  Level FlightAware
01:30PM 51.5810 -10.7000 260° West 437 503 38,000  Level FlightAware
01:31PM 51.5660 -10.8270 259° West 437 503 38,000  Level FlightAware
01:31PM 51.5500 -10.9710 260° West 435 501 38,000  Level FlightAware
01:32PM 51.5350 -11.0970 259° West 434 499 38,000  Level FlightAware
01:33PM 51.5180 -11.2400 259° West 434 499 38,000  Level FlightAware
01:33PM 51.5050 -11.3410 258° West 433 498 38,000  Level FlightAware
01:34PM 51.4880 -11.4870 259° West 433 498 38,000  Level FlightAware
01:35PM 51.4720 -11.6150 259° West 433 498 38,000  Level FlightAware
01:36PM 51.4480 -11.8070 259° West 433 498 38,000  Level FlightAware
01:37PM 51.4300 -11.9500 259° West 432 497 38,000  Level FlightAware
01:37PM 51.4140 -12.0740 258° West 431 496 38,000  Level FlightAware
01:38PM 51.3980 -12.1970 258° West 430 495 38,000  Level FlightAware
01:39PM 51.3820 -12.3250 259° West 429 494 38,000  Level FlightAware
01:39PM 51.3660 -12.4480 258° West 429 494 38,000  Level FlightAware
01:40PM 51.3530 -12.5540 259° West 429 494 38,000  Level FlightAware
01:41PM 51.3410 -12.6600 260° West 429 494 38,000  Level FlightAware
01:41PM 51.3280 -12.7660 259° West 429 494 38,000  Level FlightAware
01:42PM 51.3120 -12.8990 259° West 429 494 38,000  Level FlightAware
01:43PM 51.2990 -13.0050 259° West 429 494 38,000  Level FlightAware
01:44PM 51.2860 -13.1110 259° West 429 494 38,000  Level FlightAware
01:44PM 51.2730 -13.2160 259° West 429 494 38,000  Level FlightAware
01:45PM 51.2600 -13.3220 259° West 429 494 38,000  Level FlightAware
01:46PM 51.2440 -13.4550 259° West 429 494 38,000  Level FlightAware
01:46PM 51.2310 -13.5600 259° West 429 494 38,000  Level FlightAware
01:47PM 51.2180 -13.6660 259° West 429 494 38,000  Level FlightAware
01:48PM 51.2050 -13.7720 259° West 429 494 38,000  Level FlightAware
01:48PM 51.1920 -13.8780 259° West 429 494 38,000  Level FlightAware
01:51PM 51.2337 -14.2765 280° West  Level Estimated
01:52PM 51.2529 -14.4636 279° West  Level Estimated
01:53PM 51.2717 -14.6508 279° West  Level Estimated
01:54PM 51.2902 -14.8381 279° West  Level Estimated
01:55PM 51.3084 -15.0261 279° West  Level Estimated
01:56PM 51.3264 -15.2142 279° West  Level Estimated
01:57PM 51.3440 -15.4024 279° West  Level Estimated
01:58PM 51.3614 -15.5908 278° West  Level Estimated
01:59PM 51.3784 -15.7793 278° West  Level Estimated
02:00PM 51.3952 -15.9680 278° West  Level Estimated
02:01PM 51.4116 -16.1568 278° West  Level Estimated
02:02PM 51.4277 -16.3457 278° West  Level Estimated
02:03PM 51.4436 -16.5348 278° West  Level Estimated
02:04PM 51.4591 -16.7240 278° West  Level Estimated
02:05PM 51.4743 -16.9133 277° West  Level Estimated
02:06PM 51.4893 -17.1028 277° West  Level Estimated
02:07PM 51.5039 -17.2924 277° West  Level Estimated
02:08PM 51.5182 -17.4821 277° West  Level Estimated
02:09PM 51.5322 -17.6719 277° West  Level Estimated
02:10PM 51.5463 -17.8678 277° West  Level Estimated
02:11PM 51.5601 -18.0638 277° West  Level Estimated
02:12PM 51.5736 -18.2599 276° West  Level Estimated
02:13PM 51.5867 -18.4561 276° West  Level Estimated
02:14PM 51.5995 -18.6525 276° West  Level Estimated
02:15PM 51.6120 -18.8489 276° West  Level Estimated
02:16PM 51.6241 -19.0455 276° West  Level Estimated
02:17PM 51.6360 -19.2422 276° West  Level Estimated
02:18PM 51.6475 -19.4390 275° West  Level Estimated
02:19PM 51.6586 -19.6358 275° West  Level Estimated
02:20PM 51.6695 -19.8328 275° West  Level Estimated
02:20PM 51.0000 -20.0000 274° West 435 501 38,000  Level ETMS Enhanced Traffic Management System
02:21PM 51.6800 -20.0299 275° West  Level Estimated
02:22PM 51.6902 -20.2270 275° West  Level Estimated
02:23PM 51.7000 -20.4242 275° West  Level Estimated
02:24PM 51.7095 -20.6216 275° West  Level Estimated
02:25PM 51.7187 -20.8190 274° West  Level Estimated
02:26PM 51.0436 -21.1514 273° West 435 501 38,000  Level FlightAware Transoceanic
02:27PM 51.0497 -21.3435 273° West 435 501 38,000  Level FlightAware Transoceanic
02:28PM 51.0556 -21.5357 273° West 435 501 38,000  Level FlightAware Transoceanic
02:29PM 51.0611 -21.7279 273° West 435 501 38,000  Level FlightAware Transoceanic
02:30PM 51.0663 -21.9201 272° West 435 501 38,000  Level FlightAware Transoceanic
02:31PM 51.0712 -22.1124 272° West 435 501 38,000  Level FlightAware Transoceanic
02:32PM 51.0758 -22.3048 272° West 435 501 38,000  Level FlightAware Transoceanic
02:33PM 51.0801 -22.4971 272° West 435 501 38,000  Level FlightAware Transoceanic
02:34PM 51.0840 -22.6895 272° West 435 501 38,000  Level FlightAware Transoceanic
02:35PM 51.0877 -22.8819 272° West 435 501 38,000  Level FlightAware Transoceanic
02:36PM 51.0910 -23.0744 271° West 435 501 38,000  Level FlightAware Transoceanic
02:37PM 51.0940 -23.2669 271° West 435 501 38,000  Level FlightAware Transoceanic
02:38PM 51.0967 -23.4594 271° West 435 501 38,000  Level FlightAware Transoceanic
02:39PM 51.0990 -23.6519 271° West 435 501 38,000  Level FlightAware Transoceanic
02:40PM 51.1011 -23.8445 271° West 435 501 38,000  Level FlightAware Transoceanic
02:41PM 51.1028 -24.0370 271° West 435 501 38,000  Level FlightAware Transoceanic
02:42PM 51.1043 -24.2296 271° West 435 501 38,000  Level FlightAware Transoceanic
02:43PM 51.1054 -24.4222 270° West 435 501 38,000  Level FlightAware Transoceanic
02:44PM 51.1062 -24.6148 270° West 435 501 38,000  Level FlightAware Transoceanic
02:45PM 51.1066 -24.8074 270° West 435 501 38,000  Level FlightAware Transoceanic
02:46PM 51.1068 -25.0000 270° West 435 501 38,000  Level FlightAware Transoceanic
02:47PM 51.1066 -25.1926 270° West 435 501 38,000  Level FlightAware Transoceanic
02:48PM 51.1062 -25.3852 270° West 435 501 38,000  Level FlightAware Transoceanic
02:49PM 51.1054 -25.5778 270° West 435 501 38,000  Level FlightAware Transoceanic
02:50PM 51.1043 -25.7704 269° West 435 501 38,000  Level FlightAware Transoceanic
02:51PM 51.1028 -25.9630 269° West 435 501 38,000  Level FlightAware Transoceanic
02:52PM 51.1011 -26.1555 269° West 435 501 38,000  Level FlightAware Transoceanic
02:53PM 51.0990 -26.3481 269° West 435 501 38,000  Level FlightAware Transoceanic
02:54PM 51.0967 -26.5406 269° West 435 501 38,000  Level FlightAware Transoceanic
02:55PM 51.0940 -26.7331 269° West 435 501 38,000  Level FlightAware Transoceanic
02:56PM 51.0910 -26.9256 269° West 435 501 38,000  Level FlightAware Transoceanic
02:57PM 51.0877 -27.1181 268° West 435 501 38,000  Level FlightAware Transoceanic
02:58PM 51.0840 -27.3105 268° West 435 501 38,000  Level FlightAware Transoceanic
02:59PM 51.0801 -27.5029 268° West 435 501 38,000  Level FlightAware Transoceanic
03:00PM 51.0758 -27.6952 268° West 435 501 38,000  Level FlightAware Transoceanic
03:01PM 51.0712 -27.8876 268° West 435 501 38,000  Level FlightAware Transoceanic
03:02PM 51.0663 -28.0799 268° West 435 501 38,000  Level FlightAware Transoceanic
03:03PM 51.0611 -28.2721 267° West 435 501 38,000  Level FlightAware Transoceanic
03:04PM 51.0556 -28.4643 267° West 435 501 38,000  Level FlightAware Transoceanic
03:05PM 51.0497 -28.6565 267° West 435 501 38,000  Level FlightAware Transoceanic
03:06PM 51.0436 -28.8486 267° West 435 501 38,000  Level FlightAware Transoceanic
03:07PM 51.0371 -29.0406 267° West 435 501 38,000  Level FlightAware Transoceanic
03:08PM 51.0303 -29.2326 267° West 435 501 38,000  Level FlightAware Transoceanic
03:09PM 51.0232 -29.4245 267° West 435 501 38,000  Level FlightAware Transoceanic
03:10PM 51.0158 -29.6164 266° West 435 501 38,000  Level FlightAware Transoceanic
03:11PM 51.0080 -29.8083 266° West 435 501 38,000  Level FlightAware Transoceanic
03:12PM 50.9999 -30.0027 266° West  Level FlightAware Approximate
03:13PM 50.9997 -30.0054 265° West  Level FlightAware Approximate
03:14PM 50.9887 -30.1995 265° West  Level FlightAware Approximate
03:15PM 50.9774 -30.3935 265° West  Level FlightAware Approximate
03:16PM 50.9662 -30.5817 265° West  Level FlightAware Approximate
03:17PM 50.9546 -30.7698 264° West  Level FlightAware Approximate
03:18PM 50.9427 -30.9578 264° West  Level FlightAware Approximate
03:19PM 50.9306 -31.1457 264° West  Level FlightAware Approximate
03:20PM 50.9181 -31.3335 264° West  Level FlightAware Approximate
03:21PM 50.9053 -31.5212 264° West  Level FlightAware Approximate
03:22PM 50.8923 -31.7088 264° West  Level FlightAware Approximate
03:23PM 50.8789 -31.8963 264° West  Level FlightAware Approximate
03:24PM 50.8652 -32.0837 263° West  Level FlightAware Approximate
03:25PM 50.8513 -32.2710 263° West  Level FlightAware Approximate
03:26PM 50.8370 -32.4581 263° West  Level FlightAware Approximate
03:27PM 50.8224 -32.6452 263° West  Level FlightAware Approximate
03:28PM 50.8075 -32.8321 263° West  Level FlightAware Approximate
03:29PM 50.7924 -33.0189 263° West  Level FlightAware Approximate
03:30PM 50.7769 -33.2056 263° West  Level FlightAware Approximate
03:31PM 50.7612 -33.3922 262° West  Level FlightAware Approximate
03:32PM 50.7451 -33.5786 262° West  Level FlightAware Approximate
03:33PM 50.7287 -33.7649 262° West  Level FlightAware Approximate
03:34PM 50.7121 -33.9511 262° West  Level FlightAware Approximate
03:35PM 50.6951 -34.1371 262° West  Level FlightAware Approximate
03:36PM 50.6779 -34.3230 262° West  Level FlightAware Approximate
03:37PM 50.6603 -34.5088 262° West  Level FlightAware Approximate
03:38PM 50.6425 -34.6944 261° West  Level FlightAware Approximate
03:39PM 50.6244 -34.8799 261° West  Level FlightAware Approximate
03:40PM 50.6059 -35.0652 261° West  Level FlightAware Approximate
03:41PM 50.5872 -35.2504 261° West  Level FlightAware Approximate
03:42PM 50.5682 -35.4355 261° West  Level FlightAware Approximate
03:43PM 50.5489 -35.6203 261° West  Level FlightAware Approximate
03:44PM 50.5293 -35.8051 261° West  Level FlightAware Approximate
03:45PM 50.5094 -35.9897 260° West  Level FlightAware Approximate
03:46PM 50.4892 -36.1741 260° West  Level FlightAware Approximate
03:47PM 50.4688 -36.3584 260° West  Level FlightAware Approximate
03:48PM 50.4480 -36.5425 260° West  Level FlightAware Approximate
03:49PM 50.4269 -36.7264 260° West  Level FlightAware Approximate
03:50PM 50.4056 -36.9102 260° West  Level FlightAware Approximate
03:51PM 50.3840 -37.0938 260° West  Level FlightAware Approximate
03:52PM 50.3621 -37.2773 259° West  Level FlightAware Approximate
03:53PM 50.3399 -37.4606 259° West  Level FlightAware Approximate
03:54PM 50.3173 -37.6437 259° West  Level FlightAware Approximate
03:55PM 50.2946 -37.8266 259° West  Level FlightAware Approximate
03:56PM 50.2715 -38.0093 259° West  Level FlightAware Approximate
03:57PM 50.2481 -38.1919 259° West  Level FlightAware Approximate
03:58PM 50.2245 -38.3743 259° West  Level FlightAware Approximate
03:59PM 50.2006 -38.5565 258° West  Level FlightAware Approximate
04:00PM 50.1763 -38.7386 258° West  Level FlightAware Approximate
04:01PM 50.1518 -38.9204 258° West  Level FlightAware Approximate
04:02PM 50.1271 -39.1021 258° West  Level FlightAware Approximate
04:03PM 50.1020 -39.2836 258° West  Level FlightAware Approximate
04:04PM 50.0766 -39.4648 258° West  Level FlightAware Approximate
04:05PM 50.0510 -39.6459 258° West  Level FlightAware Approximate
04:06PM 50.0251 -39.8268 257° West  Level FlightAware Approximate
04:07PM 49.9995 -40.0081 265° West  Level FlightAware Approximate
04:08PM 49.9888 -40.1930 265° West  Level FlightAware Approximate
04:09PM 49.9777 -40.3777 265° West  Level FlightAware Approximate
04:10PM 49.9664 -40.5624 265° West  Level FlightAware Approximate
04:11PM 49.9548 -40.7470 264° West  Level FlightAware Approximate
04:12PM 49.9428 -40.9315 264° West  Level FlightAware Approximate
04:13PM 49.9306 -41.1159 264° West  Level FlightAware Approximate
04:14PM 49.9181 -41.3002 264° West  Level FlightAware Approximate
04:15PM 49.9053 -41.4845 264° West  Level FlightAware Approximate
04:16PM 49.8922 -41.6686 264° West  Level FlightAware Approximate
04:17PM 49.8789 -41.8526 264° West  Level FlightAware Approximate
04:18PM 49.8652 -42.0365 263° West  Level FlightAware Approximate
04:19PM 49.8512 -42.2203 263° West  Level FlightAware Approximate
04:20PM 49.8370 -42.4040 263° West  Level FlightAware Approximate
04:21PM 49.8224 -42.5876 263° West  Level FlightAware Approximate
04:22PM 49.8076 -42.7711 263° West  Level FlightAware Approximate
04:23PM 49.7925 -42.9544 263° West  Level FlightAware Approximate
04:24PM 49.7771 -43.1377 263° West  Level FlightAware Approximate
04:25PM 49.7614 -43.3208 263° West  Level FlightAware Approximate
04:26PM 49.7454 -43.5038 262° West  Level FlightAware Approximate
04:27PM 49.7291 -43.6867 262° West  Level FlightAware Approximate
04:28PM 49.7125 -43.8695 262° West  Level FlightAware Approximate
04:29PM 49.6957 -44.0521 262° West  Level FlightAware Approximate
04:30PM 49.6785 -44.2347 262° West  Level FlightAware Approximate
04:31PM 49.6611 -44.4170 262° West  Level FlightAware Approximate
04:32PM 49.6434 -44.5993 262° West  Level FlightAware Approximate
04:33PM 49.6254 -44.7814 261° West  Level FlightAware Approximate
04:34PM 49.6071 -44.9634 261° West  Level FlightAware Approximate
04:35PM 49.5885 -45.1453 261° West  Level FlightAware Approximate
04:36PM 49.5697 -45.3270 261° West  Level FlightAware Approximate
04:37PM 49.5505 -45.5086 261° West  Level FlightAware Approximate
04:38PM 49.5311 -45.6900 261° West  Level FlightAware Approximate
04:39PM 49.5114 -45.8713 261° West  Level FlightAware Approximate
04:40PM 49.4914 -46.0524 260° West  Level FlightAware Approximate
04:41PM 49.4711 -46.2334 260° West  Level FlightAware Approximate
04:42PM 49.4506 -46.4142 260° West  Level FlightAware Approximate
04:43PM 49.4297 -46.5949 260° West  Level FlightAware Approximate
04:44PM 49.4086 -46.7754 260° West  Level FlightAware Approximate
04:45PM 49.3872 -46.9558 260° West  Level FlightAware Approximate
04:46PM 49.3655 -47.1360 260° West  Level FlightAware Approximate
04:47PM 49.3436 -47.3160 259° West  Level FlightAware Approximate
04:48PM 49.3213 -47.4959 259° West  Level FlightAware Approximate
04:49PM 49.2998 -47.6759 260° West  Level FlightAware Approximate
04:50PM 49.2782 -47.8558 260° West  Level FlightAware Approximate
04:51PM 49.2563 -48.0356 260° West  Level FlightAware Approximate
04:52PM 49.2341 -48.2152 259° West  Level FlightAware Approximate
04:53PM 49.2117 -48.3946 259° West  Level FlightAware Approximate
04:54PM 49.1890 -48.5739 259° West  Level FlightAware Approximate
04:55PM 49.1660 -48.7530 259° West  Level FlightAware Approximate
04:56PM 49.1427 -48.9319 259° West  Level FlightAware Approximate
04:57PM 49.1192 -49.1107 259° West  Level FlightAware Approximate
04:58PM 49.0953 -49.2897 259° West  Level FlightAware Approximate
04:58PM 48.9430 -50.3380 258° West 460 529 39,000  Level FlightAware
04:59PM 49.0712 -49.4686 258° West  Level FlightAware Approximate
04:59PM 48.9150 -50.4640 251° West 461 531 39,000  Level FlightAware
05:00PM 48.8830 -50.6040 251° West 461 531 39,000  Level FlightAware
05:01PM 48.8560 -50.7250 251° West 461 531 39,000  Level FlightAware
05:01PM 48.8280 -50.8490 251° West 459 528 39,000  Level FlightAware
05:02PM 48.7980 -50.9830 251° West 460 529 39,000  Level FlightAware
05:03PM 48.7700 -51.1020 250° West 460 529 39,000  Level FlightAware
05:03PM 48.7450 -51.2080 250° West 460 529 39,000  Level FlightAware
05:04PM 48.7000 -51.2167 250° West 460 529 39,000  Level Moncton Center
05:04PM 48.7000 -51.2833 270° West 460 529 39,000  Level Gander Center
05:05PM 48.6500 -51.4500 246° West 460 529 39,000  Level Gander Center
05:06PM 48.6167 -51.6333 255° West 460 529 39,000  Level Gander Center
05:07PM 48.5833 -51.7833 251° West 460 529 39,000  Level Moncton Center
05:08PM 48.5333 -51.9500 246° West 460 529 39,000  Level Moncton Center
05:09PM 48.4833 -52.1333 248° West 460 529 39,000  Level Moncton Center
05:10PM 48.4500 -52.3167 255° West 460 529 39,000  Level Moncton Center
05:11PM 48.4000 -52.4833 246° West 460 529 39,000  Level Moncton Center
05:11PM 48.4000 -52.5667 270° West 460 529 39,000  Level Gander Center
05:12PM 48.3500 -52.6833 237° Southwest 460 529 39,000  Level Moncton Center
05:13PM 48.3333 -52.8667 262° West 460 529 39,000  Level Moncton Center
05:13PM 48.3000 -52.9000 214° Southwest 460 529 39,000  Level Gander Center
05:14PM 48.2667 -53.0833 255° West 460 529 39,000  Level Gander Center
05:15PM 48.2167 -53.2000 237° Southwest 460 529 39,000  Level Gander Center
05:16PM 48.1833 -53.4000 256° West 460 529 39,000  Level Gander Center
05:17PM 48.1333 -53.5667 246° West 460 529 39,000  Level Gander Center
05:18PM 48.1000 -53.7500 255° West 460 529 39,000  Level Gander Center
05:19PM 48.0167 -53.9000 230° Southwest 460 529 39,000  Level Gander Center
05:20PM 47.9667 -54.0833 248° West 470 541 39,000 180 Level Gander Center
05:21PM 47.9333 -54.2667 255° West 470 541 39,400 480 Climbing Gander Center
05:22PM 47.8667 -54.4667 244° Southwest 470 541 40,000 240 Climbing Moncton Center
05:23PM 47.8167 -54.6500 248° West 470 541 40,000  Level Moncton Center
05:28PM 47.5660 -55.6920 248° West 474 545 40,000  Level FlightAware
05:29PM 47.5180 -55.8600 247° West 472 543 40,000  Level FlightAware
05:30PM 47.4780 -56.0010 247° West 472 543 40,000  Level FlightAware
05:31PM 47.4490 -56.1020 247° West 472 543 40,000  Level FlightAware
05:33PM 47.3070 -56.5880 247° West 475 547 40,000  Level FlightAware
05:34PM 47.2640 -56.7370 247° West 475 547 40,000  Level FlightAware
05:35PM 47.2170 -56.8960 247° West 476 548 40,000  Level FlightAware
05:36PM 47.1430 -57.1480 247° West 477 549 40,000  Level FlightAware
05:38PM 47.0800 -57.3550 246° West 476 548 40,000  Level FlightAware
05:38PM 47.0420 -57.4810 246° West 476 548 40,000  Level FlightAware
05:39PM 47.0120 -57.5810 246° West 476 548 40,000  Level FlightAware
05:40PM 46.9810 -57.6810 246° West 476 548 40,000  Level FlightAware
05:40PM 46.9180 -57.8880 246° West 480 552 40,000  Level FlightAware
05:41PM 46.8810 -58.0070 246° West 481 554 40,000  Level FlightAware
05:42PM 46.8440 -58.1250 245° Southwest 481 554 40,000  Level FlightAware
05:43PM 46.8020 -58.2600 246° West 480 552 40,000  Level FlightAware
05:43PM 46.7660 -58.3770 246° West 481 554 40,000  Level FlightAware
05:44PM 46.7240 -58.5090 245° Southwest 481 554 40,000  Level FlightAware
05:45PM 46.6880 -58.6230 245° Southwest 482 555 40,000  Level FlightAware
05:45PM 46.6500 -58.7430 245° Southwest 483 556 40,000  Level FlightAware
05:46PM 46.6070 -58.8780 245° Southwest 484 557 40,000  Level FlightAware
05:47PM 46.5710 -58.9900 245° Southwest 484 557 40,000  Level FlightAware
05:47PM 46.5400 -59.0830 244° Southwest 484 557 40,000  Level FlightAware
05:48PM 46.5030 -59.1990 245° Southwest 484 557 40,000  Level FlightAware
05:49PM 46.4600 -59.3310 245° Southwest 484 557 40,000  Level FlightAware
05:49PM 46.4220 -59.4480 245° Southwest 485 558 40,000  Level FlightAware
05:50PM 46.3780 -59.5820 245° Southwest 486 559 40,000  Level FlightAware
05:51PM 46.3390 -59.6990 244° Southwest 486 559 40,000  Level FlightAware
05:51PM 46.2960 -59.8280 244° Southwest 486 559 40,000  Level FlightAware
05:52PM 46.2570 -59.9450 244° Southwest 485 558 40,000  Level FlightAware
05:53PM 46.2220 -60.0490 244° Southwest 486 559 40,000  Level FlightAware
05:54PM 46.1740 -60.1950 245° Southwest 486 559 40,000  Level FlightAware
05:54PM 46.1340 -60.3110 244° Southwest 486 559 40,000  Level FlightAware
05:55PM 46.0910 -60.4390 244° Southwest 486 559 40,000  Level FlightAware
05:56PM 46.0510 -60.5550 244° Southwest 486 559 40,000  Level FlightAware
05:56PM 46.0110 -60.6720 244° Southwest 486 559 40,000  Level FlightAware
05:57PM 45.9660 -60.8040 244° Southwest 486 559 40,000  Level FlightAware
05:58PM 45.9260 -60.9200 244° Southwest 486 559 40,000  Level FlightAware
05:58PM 45.8820 -61.0460 243° Southwest 486 559 40,000  Level FlightAware
05:59PM 45.8420 -61.1600 243° Southwest 485 558 40,000  Level FlightAware
06:00PM 45.8050 -61.2670 244° Southwest 484 557 40,000  Level FlightAware
06:00PM 45.7660 -61.3770 243° Southwest 484 557 40,000  Level FlightAware
06:01PM 45.7220 -61.4980 243° Southwest 484 557 40,000  Level FlightAware
06:02PM 45.6880 -61.5950 243° Southwest 484 557 40,000  Level FlightAware
06:03PM 45.6530 -61.6920 243° Southwest 484 557 40,000  Level FlightAware
06:03PM 45.6190 -61.7890 243° Southwest 484 557 40,000  Level FlightAware
06:04PM 45.5840 -61.8860 243° Southwest 484 557 40,000  Level FlightAware
06:05PM 45.5410 -62.0070 243° Southwest 484 557 40,000  Level FlightAware
06:05PM 45.5060 -62.1040 243° Southwest 484 557 40,000  Level FlightAware
06:06PM 45.4720 -62.2010 243° Southwest 484 557 40,000  Level FlightAware
06:07PM 45.4370 -62.2980 243° Southwest 484 557 40,000  Level FlightAware
06:07PM 45.4030 -62.3940 243° Southwest 484 557 40,000  Level FlightAware
06:08PM 45.3590 -62.5150 243° Southwest 484 557 40,000  Level FlightAware
06:09PM 45.3250 -62.6110 243° Southwest 484 557 40,000  Level FlightAware
06:10PM 45.2900 -62.7080 243° Southwest 484 557 40,000  Level FlightAware
06:13PM 44.9840 -63.5070 242° Southwest 486 559 40,000  Level FlightAware
06:14PM 44.9410 -63.6200 242° Southwest 486 559 40,000  Level FlightAware
06:14PM 44.8920 -63.7470 241° Southwest 487 560 40,000  Level FlightAware
06:15PM 44.8480 -63.8600 241° Southwest 487 560 40,000  Level FlightAware
06:16PM 44.8120 -63.9550 242° Southwest 488 562 40,000  Level FlightAware
06:16PM 44.7580 -64.0950 242° Southwest 487 560 40,000  Level FlightAware
06:17PM 44.7130 -64.2090 241° Southwest 487 560 40,000  Level FlightAware
06:18PM 44.6650 -64.3320 241° Southwest 487 560 40,000  Level FlightAware
06:19PM 44.6210 -64.4410 240° Southwest 487 560 40,000  Level FlightAware
06:19PM 44.5840 -64.5350 241° Southwest 487 560 40,000  Level FlightAware
06:20PM 44.5290 -64.6750 241° Southwest 485 558 40,000  Level FlightAware
06:21PM 44.4840 -64.7880 241° Southwest 483 556 40,000  Level FlightAware
06:21PM 44.4360 -64.9070 241° Southwest 482 555 40,000  Level FlightAware
06:22PM 44.3920 -65.0160 241° Southwest 483 556 40,000  Level FlightAware
06:23PM 44.3500 -65.1220 241° Southwest 484 557 40,000  Level FlightAware
06:23PM 44.2990 -65.2470 240° Southwest 487 560 40,000  Level FlightAware
06:24PM 44.2540 -65.3570 240° Southwest 488 562 40,000  Level FlightAware
06:25PM 44.2050 -65.4780 241° Southwest 488 562 40,000  Level FlightAware
06:26PM 44.1620 -65.5830 240° Southwest 485 558 40,000  Level FlightAware
06:26PM 44.1150 -65.6970 240° Southwest 484 557 40,000  Level FlightAware
06:27PM 44.0660 -65.8160 240° Southwest 484 557 40,000  Level FlightAware
06:27PM 44.0340 -65.8920 240° Southwest 484 557 40,000  Level FlightAware
06:28PM 43.9780 -66.0270 240° Southwest 484 557 40,000  Level FlightAware
06:29PM 43.9270 -66.1480 240° Southwest 484 557 40,000  Level FlightAware
06:30PM 43.8820 -66.2570 240° Southwest 485 558 40,000  Level FlightAware
06:30PM 43.8310 -66.3770 240° Southwest 485 558 40,000  Level FlightAware
06:31PM 43.7870 -66.4820 240° Southwest 485 558 40,000  Level FlightAware
06:32PM 43.7340 -66.6050 239° Southwest 484 557 40,000  Level FlightAware
06:33PM 43.6900 -66.7090 240° Southwest 484 557 40,000  Level FlightAware
06:33PM 43.6430 -66.8170 239° Southwest 484 557 40,000  Level FlightAware
06:34PM 43.5930 -66.9350 240° Southwest 482 555 40,000  Level FlightAware
06:35PM 43.5480 -67.0400 239° Southwest 482 555 40,000  Level FlightAware
06:35PM 43.5030 -67.1480 240° Southwest 482 555 40,000  Level FlightAware
06:36PM 43.4530 -67.2660 240° Southwest 483 556 40,000  Level FlightAware
06:37PM 43.4070 -67.3740 240° Southwest 484 557 40,000  Level FlightAware
06:37PM 43.3570 -67.4930 240° Southwest 485 558 40,000  Level FlightAware
06:38PM 43.3120 -67.5990 240° Southwest 485 558 40,000  Level FlightAware
06:39PM 43.2610 -67.7180 240° Southwest 485 558 40,000  Level FlightAware
06:39PM 43.2220 -67.8090 240° Southwest 485 558 40,000  Level FlightAware
06:40PM 43.1690 -67.9300 239° Southwest 482 555 40,000  Level FlightAware
06:41PM 43.1260 -68.0300 240° Southwest 482 555 40,000  Level FlightAware
06:41PM 43.0840 -68.1280 240° Southwest 482 555 40,000  Level FlightAware
06:42PM 43.0300 -68.2556 240° Southwest 489 563 40,000 -60 Level Boston Center
06:43PM 42.9608 -68.4136 239° Southwest 489 563 39,900  Descending Boston Center
06:44PM 42.9047 -68.5422 239° Southwest 489 563 40,000  Climbing Boston Center
06:45PM 42.8133 -68.7406 238° Southwest 489 563 40,000  Level Boston Center
06:46PM 42.7433 -68.8975 239° Southwest 489 563 40,000  Level Boston Center
06:47PM 42.6750 -69.0539 239° Southwest 489 563 40,000 -60 Level Boston Center
06:49PM 42.6047 -69.2128 239° Southwest 489 563 39,900  Descending Boston Center
06:50PM 42.5239 -69.3778 236° Southwest 482 555 40,000  Climbing Boston Center
06:51PM 42.4689 -69.5069 240° Southwest 488 562 40,000  Level Boston Center
06:52PM 42.3858 -69.6936 239° Southwest 493 567 40,000  Level Boston Center
06:53PM 42.3144 -69.8456 238° Southwest 493 567 40,000 -60 Level Boston Center
06:54PM 42.2469 -70.0000 239° Southwest 487 560 39,900  Descending Boston Center
06:55PM 42.1731 -70.1514 237° Southwest 487 560 40,000  Climbing Boston Center
06:56PM 42.0989 -70.3053 237° Southwest 492 566 40,000  Level Boston Center
06:57PM 42.0331 -70.4583 240° Southwest 486 559 40,000  Level Boston Center
06:58PM 41.9736 -70.6500 247° West 475 547 40,000  Level Boston Center
06:59PM 41.9219 -70.8106 247° West 470 541 40,000 -1,680 Level Boston Center
07:04PM 41.5210 -71.6310 247° West 472 543 29,000 -2,040 Descending FlightAware
07:05PM 41.4650 -71.6990 222° Southwest 465 535 27,700 -2,280 Descending FlightAware
07:06PM 41.3950 -71.7840 222° Southwest 454 522 26,000 -2,160 Descending FlightAware
07:06PM 41.3520 -71.8360 222° Southwest 446 513 24,500 -1,380 Descending FlightAware
07:07PM 41.2780 -71.9250 222° Southwest 443 510 24,200 -1,680 Descending FlightAware
07:08PM 41.1930 -72.0180 219° Southwest 436 502 22,200 -1,440 Descending FlightAware
07:08PM 41.1420 -72.0720 219° Southwest 436 502 22,100 -120 Descending FlightAware
07:09PM 41.0880 -72.1280 218° Southwest 436 502 22,100  Level FlightAware
07:10PM 41.0340 -72.1840 218° Southwest 436 502 22,100  Level FlightAware
07:10PM 40.9800 -72.2400 218° Southwest 436 502 22,100 -5,520 Level FlightAware
07:11PM 41.0310 -72.3940 294° West 380 437 16,600 -6,600 Descending FlightAware
07:11PM 41.0100 -72.4800 252° West 369 425 15,500 -1,620 Descending FlightAware
07:12PM 40.9890 -72.5630 251° West 351 404 14,500 -720 Descending FlightAware
07:13PM 40.9680 -72.6440 251° West 351 404 14,500  Level FlightAware
07:14PM 40.9500 -72.7130 251° West 351 404 14,500 -1,740 Level FlightAware
07:15PM 40.9030 -72.8250 241° Southwest 305 351 11,600 -1,740 Descending FlightAware
07:15PM 40.8610 -72.8760 223° Southwest 304 350 11,600 -180 Level FlightAware
07:16PM 40.8190 -72.9320 225° Southwest 306 352 11,400 -600 Descending FlightAware
07:17PM 40.7780 -72.9870 225° Southwest 304 350 10,800 -900 Descending FlightAware
07:17PM 40.7520 -73.0300 231° Southwest 302 348 10,400 -900 Descending FlightAware
07:18PM 40.7380 -73.0990 255° West 300 345 9,800 -960 Descending FlightAware
07:18PM 40.7270 -73.1520 255° West 297 342 9,300 -1,140 Descending FlightAware
07:19PM 40.7180 -73.1990 256° West 295 339 8,800 -1,140 Descending FlightAware
07:19PM 40.7080 -73.2510 256° West 290 334 8,300 -1,020 Descending FlightAware
07:20PM 40.7000 -73.2920 256° West 292 336 7,900 -900 Descending FlightAware
07:20PM 40.6900 -73.3420 255° West 289 333 7,500 -840 Descending FlightAware
07:21PM 40.6690 -73.3860 238° Southwest 288 331 7,100 -780 Descending FlightAware
07:21PM 40.6390 -73.4100 211° Southwest 291 335 6,800 -480 Descending FlightAware
07:22PM 40.6050 -73.4330 207° Southwest 288 331 6,700 -240 Descending FlightAware
07:22PM 40.5680 -73.4580 207° Southwest 284 327 6,600 -120 Descending FlightAware
07:22PM 40.5390 -73.4780 208° Southwest 282 325 6,600  Level FlightAware
07:23PM 40.5100 -73.4980 208° Southwest 282 325 6,600  Level FlightAware
07:23PM 40.4976 -73.5071 209° Southwest 283 326 6,600  Level FlightAware ADS-B
07:23PM 40.4800 -73.5196 208° Southwest 282 325 6,600  Level FlightAware ADS-B
07:24PM 40.4618 -73.5327 209° Southwest 282 325 6,600  Level FlightAware ADS-B
07:24PM 40.4426 -73.5464 209° Southwest 281 323 6,600  Level FlightAware ADS-B
07:24PM 40.4252 -73.5588 208° Southwest 283 326 6,600  Level FlightAware ADS-B
07:24PM 40.4042 -73.5734 208° Southwest 282 325 6,600  Level FlightAware ADS-B
07:25PM 40.3870 -73.5854 208° Southwest 279 321 6,600 -420 Level FlightAware ADS-B
07:25PM 40.3680 -73.5986 208° Southwest 279 321 6,400 -660 Descending FlightAware ADS-B
07:25PM 40.3452 -73.6147 208° Southwest 278 320 6,200 -720 Descending FlightAware ADS-B
07:26PM 40.3279 -73.6270 208° Southwest 278 320 6,000 -960 Descending FlightAware ADS-B
07:26PM 40.3072 -73.6415 208° Southwest 280 322 5,700 -840 Descending FlightAware ADS-B
07:26PM 40.2822 -73.6719 223° Southwest 281 323 5,400 -720 Descending FlightAware ADS-B
07:27PM 40.2731 -73.6964 244° Southwest 281 323 5,200 -780 Descending FlightAware ADS-B
07:27PM 40.2665 -73.7216 251° West 281 323 5,000 -840 Descending FlightAware ADS-B
07:27PM 40.2734 -73.7799 279° West 281 323 4,500 -780 Descending FlightAware ADS-B
07:28PM 40.2822 -73.7977 303° West 271 312 4,400 -600 Descending FlightAware ADS-B
07:28PM 40.2946 -73.8210 305° West 269 310 4,200 -720 Descending FlightAware ADS-B
07:28PM 40.3068 -73.8436 305° West 269 310 4,000 -780 Descending FlightAware ADS-B
07:28PM 40.3182 -73.8645 306° West 263 303 3,800 -720 Descending FlightAware ADS-B
07:29PM 40.3320 -73.8899 305° West 254 292 3,600 -360 Descending FlightAware ADS-B
07:29PM 40.3431 -73.9104 305° West 243 280 3,600 -360 Level FlightAware ADS-B
07:29PM 40.3537 -73.9307 304° West 231 266 3,400 -600 Descending FlightAware ADS-B
07:30PM 40.3628 -73.9480 305° West 228 262 3,300 -240 Descending FlightAware ADS-B
07:30PM 40.3682 -73.9606 299° West 214 246 3,300 -300 Level FlightAware ADS-B
07:30PM 40.3719 -73.9738 290° West 209 241 3,200 -600 Descending FlightAware ADS-B
07:30PM 40.3746 -73.9854 287° West 205 236 3,100 -420 Descending FlightAware ADS-B
07:30PM 40.3791 -74.0087 284° West 198 228 3,000 -300 Descending FlightAware ADS-B
07:31PM 40.3843 -74.0333 286° West 197 227 2,900 -420 Descending FlightAware ADS-B
07:31PM 40.3887 -74.0427 302° West 192 221 2,800 -480 Descending FlightAware ADS-B
07:31PM 40.4014 -74.0521 331° Northwest 182 209 2,700 -240 Descending FlightAware ADS-B
07:31PM 40.4101 -74.0513 North 176 203 2,700 -240 Level FlightAware ADS-B
07:32PM 40.4258 -74.0404 28° Northeast 173 199 2,600 -120 Descending FlightAware ADS-B
07:32PM 40.4527 -74.0194 31° Northeast 172 198 2,600  Level FlightAware ADS-B
07:33PM 40.4699 -74.0064 30° Northeast 168 193 2,600  Level FlightAware ADS-B
07:34PM 40.5030 -73.9820 29° Northeast 172 198 2,600  Level FlightAware
07:34PM 40.5190 -73.9710 28° Northeast 171 197 2,600 -240 Level FlightAware
07:35PM 40.5400 -73.9550 30° Northeast 163 188 2,400 -780 Descending FlightAware
07:35PM 40.5570 -73.9400 34° Northeast 163 188 1,900 -1,140 Descending FlightAware
07:36PM 40.5750 -73.9260 31° Northeast 168 193 1,400 -840 Descending FlightAware
07:36PM 40.5957 -73.9083 33° Northeast 157 181 1,100 -240 Descending FlightAware ADS-B
07:37PM 40.6320 -73.8830 28° Northeast 167 192 1,100 -240 Level FlightAware
07:37PM 40.6480 -73.8680 35° Northeast 152 175 800 -660 Descending FlightAware
07:38PM 40.6610 -73.8510 45° Northeast 139 160 500 -600 Descending FlightAware
07:38PM 40.6660 -73.8260 75° East 135 155 200 -600 Descending FlightAware
07:39PM 40.6600 -73.7950 104° East 131 151 -300 Descending FlightAware